createdAt,value
2019-02-25T00:04:37.992Z," 7.18"
2019-02-25T00:09:33.847Z," 7.10"
2019-02-25T00:14:30.257Z," 7.06"
2019-02-25T00:19:26.191Z," 6.93"
2019-02-25T00:24:21.757Z," 6.69"
2019-02-25T00:29:17.580Z," 6.54"
2019-02-25T00:34:13.441Z," 6.49"
2019-02-25T00:39:09.006Z," 6.30"
2019-02-25T00:44:05.806Z," 6.33"
2019-02-25T00:49:01.943Z," 6.22"
2019-02-25T00:53:57.517Z," 6.20"
2019-02-25T00:58:54.279Z," 6.14"
2019-02-25T01:03:49.663Z," 6.04"
2019-02-25T01:08:46.199Z," 6.08"
2019-02-25T01:13:41.566Z," 5.90"
2019-02-25T01:18:37.466Z," 6.05"
2019-02-25T01:23:33.975Z," 6.31"
2019-02-25T01:28:29.396Z," 6.41"
2019-02-25T01:33:26.637Z," 6.16"
2019-02-25T01:38:22.727Z," 6.11"
2019-02-25T01:43:18.341Z," 6.20"
2019-02-25T01:48:14.455Z," 6.20"
2019-02-25T01:53:11.162Z," 6.07"
2019-02-25T01:58:07.458Z," 5.71"
2019-02-25T02:03:02.837Z," 5.79"
2019-02-25T02:07:59.232Z," 5.84"
2019-02-25T02:12:54.940Z," 5.86"
2019-02-25T02:17:50.590Z," 5.91"
2019-02-25T02:22:46.118Z," 5.73"
2019-02-25T02:27:41.732Z," 5.87"
2019-02-25T02:32:37.033Z," 5.89"
2019-02-25T02:37:33.127Z," 5.83"
2019-02-25T02:42:29.725Z," 5.84"
2019-02-25T02:47:25.083Z," 5.56"
2019-02-25T02:52:21.116Z," 5.41"
2019-02-25T02:57:16.952Z," 5.17"
2019-02-25T03:02:12.690Z," 5.18"
2019-02-25T03:07:07.722Z," 5.20"
2019-02-25T03:12:03.562Z," 5.25"
2019-02-25T03:16:59.263Z," 4.92"
2019-02-25T03:21:54.668Z," 4.92"
2019-02-25T03:26:50.221Z," 4.87"
2019-02-25T03:31:45.748Z," 4.73"
2019-02-25T03:36:43.075Z," 4.67"
2019-02-25T03:41:38.542Z," 4.62"
2019-02-25T03:46:34.954Z," 4.53"
2019-02-25T03:51:30.439Z," 4.53"
2019-02-25T03:56:27.281Z," 4.55"
2019-02-25T04:01:22.563Z," 4.24"
2019-02-25T04:06:18.353Z," 4.48"
2019-02-25T04:11:14.127Z," 4.32"
2019-02-25T04:16:09.950Z," 4.30"
2019-02-25T04:21:05.711Z," 4.23"
2019-02-25T04:26:02.222Z," 4.32"
2019-02-25T04:30:57.592Z," 4.05"
2019-02-25T04:35:53.134Z," 3.92"
2019-02-25T04:40:48.841Z," 3.68"
2019-02-25T04:45:45.477Z," 3.68"
2019-02-25T04:50:41.854Z," 3.70"
2019-02-25T04:55:37.282Z," 3.59"
2019-02-25T05:00:34.320Z," 3.47"
2019-02-25T05:05:30.683Z," 3.41"
2019-02-25T05:10:25.763Z," 3.18"
2019-02-25T05:15:21.328Z," 3.40"
2019-02-25T05:20:17.908Z," 3.37"
2019-02-25T05:25:13.648Z," 3.37"
2019-02-25T05:30:09.261Z," 3.31"
2019-02-25T05:35:05.770Z," 3.31"
2019-02-25T05:40:01.171Z," 3.81"
2019-02-25T05:44:58.132Z," 3.63"
2019-02-25T05:49:54.047Z," 3.50"
2019-02-25T05:54:49.622Z," 3.65"
2019-02-25T05:59:45.078Z," 3.65"
2019-02-25T06:04:40.644Z," 3.68"
2019-02-25T06:09:36.522Z," 3.69"
2019-02-25T06:14:32.124Z," 3.78"
2019-02-25T06:19:28.761Z," 3.80"
2019-02-25T06:24:25.036Z," 3.83"
2019-02-25T06:29:20.545Z," 3.51"
2019-02-25T06:34:16.677Z," 3.60"
2019-02-25T06:39:12.348Z," 3.65"
2019-02-25T06:44:08.118Z," 3.68"
2019-02-25T06:49:04.543Z," 3.80"
2019-02-25T06:54:00.524Z," 3.80"
2019-02-25T06:58:57.159Z," 3.77"
2019-02-25T07:03:53.577Z," 3.81"
2019-02-25T07:08:49.177Z," 4.10"
2019-02-25T07:13:45.022Z," 4.23"
2019-02-25T07:18:41.052Z," 4.31"
2019-02-25T07:23:37.695Z," 4.34"
2019-02-25T07:28:33.531Z," 4.41"
2019-02-25T07:33:29.516Z," 4.62"
2019-02-25T07:38:25.312Z," 4.87"
2019-02-25T07:43:21.316Z," 4.93"
2019-02-25T07:48:17.685Z," 4.92"
2019-02-25T07:53:14.370Z," 5.12"
2019-02-25T07:58:10.006Z," 5.32"
2019-02-25T08:03:05.879Z," 5.59"
2019-02-25T08:08:02.005Z," 5.87"
2019-02-25T08:12:58.850Z," 6.02"
2019-02-25T08:17:54.582Z," 6.22"
2019-02-25T08:22:50.588Z," 6.49"
2019-02-25T08:27:46.565Z," 6.63"
2019-02-25T08:32:42.402Z," 6.77"
2019-02-25T08:37:38.323Z," 6.95"
2019-02-25T08:42:35.101Z," 7.13"
2019-02-25T08:47:31.733Z," 7.28"
2019-02-25T08:52:27.126Z," 7.50"
2019-02-25T08:57:23.064Z," 7.60"
2019-02-25T09:02:19.930Z," 7.90"
2019-02-25T09:07:15.785Z," 8.31"
2019-02-25T09:12:11.855Z," 8.49"
2019-02-25T09:17:07.805Z," 8.71"
2019-02-25T09:22:04.550Z," 8.84"
2019-02-25T09:27:00.094Z," 8.99"
2019-02-25T09:31:55.862Z," 9.39"
2019-02-25T09:36:51.811Z," 9.58"
2019-02-25T09:41:47.887Z," 9.89"
2019-02-25T09:46:43.957Z,10.28
2019-02-25T09:51:39.773Z,10.49
2019-02-25T09:56:37.351Z,10.76
2019-02-25T10:01:34.507Z,11.12
2019-02-25T10:06:29.967Z,11.40
2019-02-25T10:11:25.946Z,11.37
2019-02-25T10:16:21.741Z,11.62
2019-02-25T10:21:17.623Z,11.87
2019-02-25T10:26:13.878Z,11.88
2019-02-25T10:31:11.507Z,12.28
2019-02-25T10:36:07.824Z,12.58
2019-02-25T10:41:04.078Z,12.87
2019-02-25T10:45:59.955Z,13.16
2019-02-25T10:50:56.470Z,13.46
2019-02-25T10:55:53.018Z,13.83
2019-02-25T11:00:50.337Z,13.79
2019-02-25T11:05:46.517Z,13.87
2019-02-25T11:10:43.973Z,14.00
2019-02-25T11:15:40.238Z,14.48
2019-02-25T11:20:37.859Z,15.15
2019-02-25T11:25:33.738Z,15.36
2019-02-25T11:30:31.573Z,15.95
2019-02-25T11:35:28.583Z,16.69
2019-02-25T11:40:26.055Z,17.05
2019-02-25T11:45:24.629Z,17.33
2019-02-25T11:50:21.575Z,17.60
2019-02-25T11:55:17.184Z,17.30
2019-02-25T12:00:12.983Z,16.76
2019-02-25T12:05:08.561Z,16.53
2019-02-25T12:10:05.344Z,16.53
2019-02-25T12:15:00.737Z,16.36
2019-02-25T12:19:56.673Z,16.38
2019-02-25T12:24:52.313Z,16.10
2019-02-25T12:29:49.047Z,16.23
2019-02-25T12:34:45.243Z,16.36
2019-02-25T12:39:41.092Z,16.13
2019-02-25T12:44:38.165Z,16.08
2019-02-25T12:49:34.095Z,16.31
2019-02-25T12:54:30.013Z,16.42
2019-02-25T12:59:25.951Z,16.47
2019-02-25T13:04:21.808Z,16.21
2019-02-25T13:09:18.570Z,16.26
2019-02-25T13:14:14.410Z,16.39
2019-02-25T13:19:11.102Z,16.42
2019-02-25T13:24:07.200Z,16.39
2019-02-25T13:29:05.161Z,16.28
2019-02-25T13:34:00.584Z,16.10
2019-02-25T13:38:56.251Z,16.36
2019-02-25T13:43:52.154Z,16.49
2019-02-25T13:48:49.743Z,16.49
2019-02-25T13:53:45.586Z,16.71
2019-02-25T13:58:42.813Z,16.78
2019-02-25T14:03:39.068Z,17.02
2019-02-25T14:08:35.277Z,17.22
2019-02-25T14:13:31.630Z,17.08
2019-02-25T14:18:27.524Z,17.29
2019-02-25T14:23:23.531Z,17.31
2019-02-25T14:28:19.919Z,17.06
2019-02-25T14:33:16.402Z,16.64
2019-02-25T14:38:15.243Z,16.50
2019-02-25T14:43:14.766Z,16.39
2019-02-25T14:48:13.072Z,16.39
2019-02-25T14:53:11.354Z,16.36
2019-02-25T14:58:10.571Z,16.24
2019-02-25T15:03:06.835Z,16.32
2019-02-25T15:08:03.026Z,16.33
2019-02-25T15:13:01.276Z,16.31
2019-02-25T15:17:56.875Z,16.24
2019-02-25T15:22:52.739Z,16.23
2019-02-25T15:27:49.634Z,16.24
2019-02-25T15:32:54.865Z,16.13
2019-02-25T15:37:44.818Z,16.17
2019-02-25T15:42:41.605Z,16.16
2019-02-25T15:47:38.473Z,16.01
2019-02-25T15:52:39.933Z,15.97
2019-02-25T15:57:35.209Z,15.86
2019-02-25T16:02:31.403Z,15.73
2019-02-25T16:07:28.188Z,15.83
2019-02-25T16:12:27.087Z,15.72
2019-02-25T16:17:24.144Z,15.65
2019-02-25T16:22:19.461Z,15.58
2019-02-25T16:27:18.875Z,15.42
2019-02-25T16:32:15.277Z,15.46
2019-02-25T16:37:12.330Z,15.40
2019-02-25T16:42:09.124Z,15.25
2019-02-25T16:47:04.430Z,14.84
2019-02-25T16:52:01.896Z,14.60
2019-02-25T16:56:57.228Z,14.33
2019-02-25T17:01:55.832Z,13.97
2019-02-25T17:06:53.486Z,13.85
2019-02-25T17:11:50.020Z,13.57
2019-02-25T17:16:45.785Z,13.39
2019-02-25T17:21:42.938Z,13.30
2019-02-25T17:26:38.577Z,13.03
2019-02-25T17:31:36.555Z,12.94
2019-02-25T17:36:33.126Z,12.79
2019-02-25T17:41:28.794Z,12.70
2019-02-25T17:46:26.350Z,12.60
2019-02-25T17:51:24.990Z,12.49
2019-02-25T17:56:22.625Z,12.22
2019-02-25T18:01:21.524Z,12.17
2019-02-25T18:06:20.138Z,12.04
2019-02-25T18:11:18.547Z,11.94
2019-02-25T18:16:16.787Z,11.83
2019-02-25T18:21:13.509Z,11.69
2019-02-25T18:26:09.120Z,11.48
2019-02-25T18:31:08.483Z,11.51
2019-02-25T18:36:04.473Z,11.33
2019-02-25T18:41:04.206Z,11.27
2019-02-25T18:46:00.557Z,11.23
2019-02-25T18:50:59.620Z,11.10
2019-02-25T18:55:56.772Z,10.87
2019-02-25T19:00:52.139Z,10.94
2019-02-25T19:05:49.436Z,10.79
2019-02-25T19:10:47.617Z,10.76
2019-02-25T19:15:43.474Z,10.59
2019-02-25T19:20:41.072Z,10.57
2019-02-25T19:25:37.896Z,10.51
2019-02-25T19:30:34.700Z,10.49
2019-02-25T19:35:31.055Z,10.46
2019-02-25T19:40:28.935Z,10.44
2019-02-25T19:45:25.086Z,10.37
2019-02-25T19:50:21.558Z,10.19
2019-02-25T19:55:18.382Z,10.20
2019-02-25T20:00:17.807Z,10.04
2019-02-25T20:05:16.529Z," 9.82"
2019-02-25T20:10:13.640Z," 9.72"
2019-02-25T20:15:11.342Z," 9.76"
2019-02-25T20:20:10.206Z," 9.58"
2019-02-25T20:25:05.941Z," 9.76"
2019-02-25T20:30:04.523Z," 9.73"
2019-02-25T20:35:01.195Z," 9.74"
2019-02-25T20:39:56.784Z," 9.73"
2019-02-25T20:44:53.454Z," 9.55"
2019-02-25T20:49:53.690Z," 9.66"
2019-02-25T20:54:49.614Z," 9.51"
2019-02-25T20:59:47.192Z," 9.61"
2019-02-25T21:04:46.023Z," 9.55"
2019-02-25T21:09:42.348Z," 9.26"
2019-02-25T21:14:41.124Z," 9.08"
2019-02-25T21:19:37.878Z," 8.81"
2019-02-25T21:24:35.824Z," 8.71"
2019-02-25T21:29:34.822Z," 8.71"
2019-02-25T21:34:31.273Z," 8.58"
2019-02-25T21:39:28.069Z," 8.49"
2019-02-25T21:44:25.844Z," 8.38"
2019-02-25T21:49:25.089Z," 8.41"
2019-02-25T21:54:22.193Z," 8.42"
2019-02-25T21:59:17.718Z," 8.27"
2019-02-25T22:04:15.569Z," 8.28"
2019-02-25T22:09:12.412Z," 8.27"
2019-02-25T22:14:08.828Z," 8.26"
2019-02-25T22:19:05.173Z," 8.16"
2019-02-25T22:24:03.137Z," 7.91"
2019-02-25T22:29:01.725Z," 7.88"
2019-02-25T22:33:56.473Z," 7.97"
2019-02-25T22:38:56.551Z," 7.88"
2019-02-25T22:43:52.901Z," 8.10"
2019-02-25T22:48:49.414Z," 8.09"
2019-02-25T22:53:45.632Z," 8.10"
2019-02-25T22:58:42.920Z," 7.97"
2019-02-25T23:03:40.917Z," 7.83"
2019-02-25T23:08:40.132Z," 7.80"
2019-02-25T23:13:35.934Z," 7.82"
2019-02-25T23:18:31.679Z," 7.67"
2019-02-25T23:23:28.675Z," 7.60"
2019-02-25T23:28:26.158Z," 7.63"
2019-02-25T23:33:24.437Z," 7.42"
2019-02-25T23:38:19.662Z," 7.43"
2019-02-25T23:43:16.755Z," 7.57"
2019-02-25T23:48:13.258Z," 7.29"
2019-02-25T23:53:08.928Z," 7.24"
2019-02-25T23:58:07.901Z," 7.10"
